sensor_id;sensor_type;location;lat;lon;timestamp;temperature;humidity
80232;DHT22;70197;42.124;24.752;2023-06-22T21:02:05;22.30;64.50
80232;DHT22;70197;42.124;24.752;2023-06-22T21:04:31;22.70;62.70
80232;DHT22;70197;42.124;24.752;2023-06-22T21:06:56;22.70;61.80
80232;DHT22;70197;42.124;24.752;2023-06-22T21:09:22;22.70;61.40
80232;DHT22;70197;42.124;24.752;2023-06-22T21:11:48;22.70;61.50
80232;DHT22;70197;42.124;24.752;2023-06-22T21:14:14;22.80;61.50
80232;DHT22;70197;42.124;24.752;2023-06-22T21:16:39;22.80;61.50
80232;DHT22;70197;42.124;24.752;2023-06-22T21:19:05;22.80;61.50
80232;DHT22;70197;42.124;24.752;2023-06-22T21:21:31;22.80;61.50
80232;DHT22;70197;42.124;24.752;2023-06-22T21:23:59;22.80;61.20
80232;DHT22;70197;42.124;24.752;2023-06-22T21:26:26;22.90;60.40
80232;DHT22;70197;42.124;24.752;2023-06-22T21:28:51;22.90;60.40
80232;DHT22;70197;42.124;24.752;2023-06-22T21:31:20;22.80;60.20
80232;DHT22;70197;42.124;24.752;2023-06-22T21:33:45;22.90;60.40
80232;DHT22;70197;42.124;24.752;2023-06-22T21:36:11;22.70;60.60
80232;DHT22;70197;42.124;24.752;2023-06-22T21:38:37;22.80;60.60
80232;DHT22;70197;42.124;24.752;2023-06-22T21:41:02;22.70;60.70
80232;DHT22;70197;42.124;24.752;2023-06-22T21:43:28;22.70;60.50
80232;DHT22;70197;42.124;24.752;2023-06-22T21:45:53;22.70;60.50
80232;DHT22;70197;42.124;24.752;2023-06-22T21:48:19;22.70;60.50
80232;DHT22;70197;42.124;24.752;2023-06-22T21:50:45;22.70;60.50
80232;DHT22;70197;42.124;24.752;2023-06-22T21:53:11;22.70;60.40
80232;DHT22;70197;42.124;24.752;2023-06-22T21:55:36;22.70;60.40
80232;DHT22;70197;42.124;24.752;2023-06-22T21:58:02;22.60;60.30
80232;DHT22;70197;42.124;24.752;2023-06-22T22:00:28;22.70;60.70
80232;DHT22;70197;42.124;24.752;2023-06-22T22:02:53;22.60;60.60
80232;DHT22;70197;42.124;24.752;2023-06-22T22:05:19;22.60;60.60
80232;DHT22;70197;42.124;24.752;2023-06-22T22:07:45;22.50;60.60
80232;DHT22;70197;42.124;24.752;2023-06-22T22:10:11;22.50;60.80
80232;DHT22;70197;42.124;24.752;2023-06-22T22:12:38;22.50;61.00
80232;DHT22;70197;42.124;24.752;2023-06-22T22:15:04;22.50;61.00
80232;DHT22;70197;42.124;24.752;2023-06-22T22:17:30;22.50;60.80
80232;DHT22;70197;42.124;24.752;2023-06-22T22:19:55;22.50;61.00
80232;DHT22;70197;42.124;24.752;2023-06-22T22:22:21;22.50;61.00
80232;DHT22;70197;42.124;24.752;2023-06-22T22:24:47;22.50;61.00
80232;DHT22;70197;42.124;24.752;2023-06-22T22:27:13;22.50;61.00
80232;DHT22;70197;42.124;24.752;2023-06-22T22:29:38;22.50;61.10
80232;DHT22;70197;42.124;24.752;2023-06-22T22:32:04;22.40;61.00
80232;DHT22;70197;42.124;24.752;2023-06-22T22:34:30;22.40;61.00
80232;DHT22;70197;42.124;24.752;2023-06-22T22:36:55;22.50;60.90
80232;DHT22;70197;42.124;24.752;2023-06-22T22:39:34;22.40;60.80
80232;DHT22;70197;42.124;24.752;2023-06-22T22:42:02;22.40;60.80
80232;DHT22;70197;42.124;24.752;2023-06-22T22:44:27;22.40;61.00
80232;DHT22;70197;42.124;24.752;2023-06-22T22:46:53;22.40;60.70
80232;DHT22;70197;42.124;24.752;2023-06-22T22:49:19;22.30;61.00
80232;DHT22;70197;42.124;24.752;2023-06-22T22:51:44;22.30;61.30
80232;DHT22;70197;42.124;24.752;2023-06-22T22:54:10;22.30;61.50
80232;DHT22;70197;42.124;24.752;2023-06-22T22:56:36;22.20;61.70
80232;DHT22;70197;42.124;24.752;2023-06-22T22:59:01;22.20;61.70
80232;DHT22;70197;42.124;24.752;2023-06-22T23:01:27;22.20;61.70
80232;DHT22;70197;42.124;24.752;2023-06-22T23:03:53;22.20;61.70
80232;DHT22;70197;42.124;24.752;2023-06-22T23:06:21;22.20;61.70
80232;DHT22;70197;42.124;24.752;2023-06-22T23:08:47;22.20;61.70
80232;DHT22;70197;42.124;24.752;2023-06-22T23:11:21;22.10;61.70
80232;DHT22;70197;42.124;24.752;2023-06-22T23:13:47;22.10;61.70
80232;DHT22;70197;42.124;24.752;2023-06-22T23:16:13;22.10;61.80
80232;DHT22;70197;42.124;24.752;2023-06-22T23:18:38;22.10;61.90
80232;DHT22;70197;42.124;24.752;2023-06-22T23:21:04;22.10;61.90
80232;DHT22;70197;42.124;24.752;2023-06-22T23:23:30;22.10;62.00
80232;DHT22;70197;42.124;24.752;2023-06-22T23:25:58;22.10;61.80
80232;DHT22;70197;42.124;24.752;2023-06-22T23:28:23;22.10;62.10
80232;DHT22;70197;42.124;24.752;2023-06-22T23:30:49;22.00;62.30
80232;DHT22;70197;42.124;24.752;2023-06-22T23:33:16;22.00;63.50
80232;DHT22;70197;42.124;24.752;2023-06-22T23:35:41;22.00;62.30
80232;DHT22;70197;42.124;24.752;2023-06-22T23:38:07;22.00;62.20
80232;DHT22;70197;42.124;24.752;2023-06-22T23:40:35;22.00;62.30
80232;DHT22;70197;42.124;24.752;2023-06-22T23:43:02;21.90;62.60
80232;DHT22;70197;42.124;24.752;2023-06-22T23:45:28;21.90;62.80
80232;DHT22;70197;42.124;24.752;2023-06-22T23:47:54;21.90;62.80
80232;DHT22;70197;42.124;24.752;2023-06-22T23:50:21;21.90;62.80
80232;DHT22;70197;42.124;24.752;2023-06-22T23:52:47;22.00;62.80
80232;DHT22;70197;42.124;24.752;2023-06-22T23:55:17;21.90;62.70
80232;DHT22;70197;42.124;24.752;2023-06-22T23:57:43;21.90;62.80
